Time;durP1;ratioP1;P1;durP2;ratioP2;P2;SDS_P1;SDS_P2;PMS_P1;PMS_P2;Temp;Humidity;BMP_temperature;BMP_pressure;BME280_temperature;BME280_humidity;BME280_pressure;Samples;Min_cycle;Max_cycle;Signal;HPM_P1;HPM_P2
2023/01/08 00:01:09;;;;;;;4.32;3.92;;;10.00;99.90;;;;;;4995214;28;20197;-65
2023/01/08 00:03:36;;;;;;;4.83;4.10;;;10.00;99.90;;;;;;4994017;28;20546;-65
2023/01/08 00:06:03;;;;;;;4.93;4.03;;;10.00;99.90;;;;;;4994066;28;20621;-65
2023/01/08 00:08:29;;;;;;;4.90;4.40;;;10.10;99.90;;;;;;4995214;28;20180;-64
2023/01/08 00:10:55;;;;;;;4.70;4.30;;;10.10;99.90;;;;;;4995063;28;20258;-65
2023/01/08 00:13:21;;;;;;;4.82;4.43;;;10.10;99.90;;;;;;4993802;28;20215;-64
2023/01/08 00:15:47;;;;;;;4.05;3.75;;;10.10;99.90;;;;;;4993755;28;20181;-65
2023/01/08 00:18:13;;;;;;;4.47;4.03;;;10.10;99.90;;;;;;5010228;28;20172;-65
2023/01/08 00:20:43;;;;;;;5.73;4.30;;;10.10;99.90;;;;;;4994768;28;20220;-67
2023/01/08 00:23:17;;;;;;;6.53;4.07;;;9.90;99.90;;;;;;4995252;28;20181;-67
2023/01/08 00:25:42;;;;;;;4.63;4.10;;;9.90;99.90;;;;;;4995129;28;20179;-67
2023/01/08 00:28:08;;;;;;;4.90;4.27;;;9.80;99.90;;;;;;4995418;28;20245;-67
2023/01/08 00:30:35;;;;;;;4.57;4.10;;;9.70;99.90;;;;;;4994783;28;20205;-67
2023/01/08 00:33:00;;;;;;;4.30;4.00;;;9.70;99.90;;;;;;4993509;28;20632;-67
2023/01/08 00:35:26;;;;;;;4.40;4.00;;;9.70;99.90;;;;;;5009672;28;20208;-67
2023/01/08 00:37:52;;;;;;;4.40;3.73;;;9.70;99.90;;;;;;5009875;28;20278;-67
2023/01/08 00:40:18;;;;;;;4.00;3.70;;;9.70;99.90;;;;;;4995240;28;20196;-68
2023/01/08 00:42:44;;;;;;;4.30;3.87;;;9.70;99.90;;;;;;4994558;28;20188;-67
2023/01/08 00:45:10;;;;;;;4.43;4.03;;;9.70;99.90;;;;;;4994894;28;20196;-68
2023/01/08 00:47:35;;;;;;;3.90;3.60;;;9.80;99.90;;;;;;4995130;28;20210;-68
2023/01/08 00:50:02;;;;;;;4.77;3.90;;;9.80;99.90;;;;;;4994232;28;20168;-68
2023/01/08 00:52:28;;;;;;;4.37;3.97;;;9.90;99.90;;;;;;4994773;28;20204;-68
2023/01/08 00:54:53;;;;;;;4.70;4.30;;;9.90;99.90;;;;;;4994828;28;20180;-68
2023/01/08 00:57:19;;;;;;;5.33;3.80;;;9.90;99.90;;;;;;4993507;28;20184;-68
2023/01/08 00:59:45;;;;;;;4.50;4.20;;;9.90;99.90;;;;;;4994826;28;20637;-68
2023/01/08 01:02:11;;;;;;;6.30;5.30;;;9.90;99.90;;;;;;4993422;28;20208;-68
2023/01/08 01:04:36;;;;;;;4.10;3.80;;;9.90;99.90;;;;;;4994753;28;20224;-68
2023/01/08 01:07:03;;;;;;;4.00;3.60;;;9.90;99.90;;;;;;5009735;28;20674;-68
2023/01/08 01:09:29;;;;;;;3.93;3.63;;;9.90;99.90;;;;;;4993380;28;20223;-68
2023/01/08 01:11:55;;;;;;;3.63;3.33;;;9.90;99.90;;;;;;5009587;28;20212;-68
2023/01/08 01:14:21;;;;;;;3.70;3.40;;;9.90;99.90;;;;;;4993500;28;20294;-68
2023/01/08 01:16:47;;;;;;;4.40;4.00;;;9.90;99.90;;;;;;5009851;28;20223;-68
2023/01/08 01:19:16;;;;;;;3.88;3.30;;;9.90;99.90;;;;;;4994743;28;20547;-68
2023/01/08 01:21:43;;;;;;;4.00;3.70;;;9.80;99.90;;;;;;4994447;28;20220;-68
2023/01/08 01:24:11;;;;;;;4.40;4.00;;;9.80;99.90;;;;;;4992815;28;20234;-68
2023/01/08 01:26:38;;;;;;;4.50;3.93;;;9.80;99.90;;;;;;4994176;28;20227;-68
2023/01/08 01:29:05;;;;;;;3.90;3.60;;;9.80;99.90;;;;;;4994834;28;20189;-68
2023/01/08 01:31:31;;;;;;;4.13;3.70;;;9.80;99.90;;;;;;4994171;28;20238;-70
2023/01/08 01:33:57;;;;;;;3.85;3.47;;;9.80;99.90;;;;;;4994393;28;20181;-68
2023/01/08 01:36:24;;;;;;;3.30;3.10;;;9.80;99.90;;;;;;4993357;28;20188;-68
2023/01/08 01:38:52;;;;;;;3.90;3.60;;;9.80;99.90;;;;;;4994723;28;20181;-68
2023/01/08 01:41:27;;;;;;;4.20;3.80;;;9.90;99.90;;;;;;4994299;28;20677;-68
2023/01/08 01:43:54;;;;;;;4.00;3.60;;;9.90;99.90;;;;;;4992951;28;20205;-68
2023/01/08 01:46:38;;;;;;;4.17;3.77;;;9.90;99.90;;;;;;4993125;28;20181;-68
2023/01/08 01:49:19;;;;;;;3.42;3.22;;;9.90;99.90;;;;;;4994674;28;20562;-68
2023/01/08 01:51:49;;;;;;;4.20;3.80;;;9.90;99.90;;;;;;4994158;28;20208;-68
2023/01/08 01:54:17;;;;;;;4.50;4.00;;;9.90;99.90;;;;;;4994587;28;20220;-68
2023/01/08 01:56:44;;;;;;;5.05;3.55;;;9.90;99.90;;;;;;4994959;28;20173;-68
2023/01/08 01:59:11;;;;;;;5.15;4.03;;;10.00;99.90;;;;;;4994537;28;20179;-68
2023/01/08 02:01:39;;;;;;;5.37;4.87;;;10.00;99.90;;;;;;4994438;28;20215;-68
2023/01/08 02:04:05;;;;;;;5.07;4.03;;;10.00;99.90;;;;;;5012960;28;20209;-68
2023/01/08 02:06:43;;;;;;;7.13;4.00;;;10.00;99.90;;;;;;4997821;28;20184;-69
2023/01/08 02:09:20;;;;;;;5.15;4.07;;;10.00;99.90;;;;;;4998176;28;20251;-68
2023/01/08 02:12:15;;;;;;;4.13;3.57;;;10.00;99.90;;;;;;4996343;28;20218;-68
2023/01/08 02:14:52;;;;;;;3.80;3.50;;;10.10;99.90;;;;;;4997524;28;20185;-70
2023/01/08 02:17:30;;;;;;;4.07;3.60;;;10.10;99.90;;;;;;4997666;28;20185;-65
2023/01/08 02:20:22;;;;;;;4.57;4.13;;;10.10;99.90;;;;;;4997290;28;20676;-65
2023/01/08 02:23:16;;;;;;;4.00;3.70;;;10.10;99.90;;;;;;4989491;28;20614;-65
2023/01/08 02:25:53;;;;;;;4.33;3.97;;;10.10;99.90;;;;;;4997063;28;20327;-65
2023/01/08 02:28:20;;;;;;;6.10;4.30;;;10.10;99.90;;;;;;4997130;28;20183;-65
2023/01/08 02:30:46;;;;;;;4.47;4.00;;;10.10;99.90;;;;;;4997009;28;20204;-65
2023/01/08 02:33:12;;;;;;;5.07;4.30;;;10.10;99.90;;;;;;4996756;28;20204;-65
2023/01/08 02:35:47;;;;;;;3.90;3.57;;;10.10;99.90;;;;;;4996866;28;20255;-65
2023/01/08 02:38:16;;;;;;;4.23;3.80;;;10.10;99.90;;;;;;4996920;28;20169;-65
2023/01/08 02:40:57;;;;;;;4.97;4.00;;;10.00;99.90;;;;;;4996821;28;20193;-65
2023/01/08 02:43:33;;;;;;;4.60;4.20;;;10.00;99.90;;;;;;4997021;28;20604;-65
2023/01/08 02:46:01;;;;;;;4.27;3.93;;;10.00;99.90;;;;;;5011942;28;20271;-65
2023/01/08 02:48:43;;;;;;;4.43;4.03;;;10.00;99.90;;;;;;5011789;28;20219;-65
2023/01/08 02:51:29;;;;;;;4.43;4.03;;;10.00;99.90;;;;;;5011652;28;20672;-64
2023/01/08 02:54:00;;;;;;;5.17;4.37;;;10.00;99.90;;;;;;4996725;28;20175;-65
2023/01/08 02:56:31;;;;;;;6.17;3.97;;;10.00;99.90;;;;;;4995589;28;20242;-65
2023/01/08 02:58:58;;;;;;;6.10;4.10;;;10.00;99.90;;;;;;5011645;28;20586;-65
2023/01/08 03:01:26;;;;;;;4.93;4.10;;;9.90;99.90;;;;;;4996435;28;20231;-65
2023/01/08 03:04:21;;;;;;;4.20;3.90;;;9.90;99.90;;;;;;4996894;28;20203;-65
2023/01/08 03:06:47;;;;;;;4.40;4.00;;;9.80;99.90;;;;;;4994632;28;20287;-65
2023/01/08 03:09:14;;;;;;;4.30;4.00;;;9.80;99.90;;;;;;4996700;28;20165;-64
2023/01/08 03:11:52;;;;;;;4.33;3.93;;;9.80;99.90;;;;;;4995146;28;20223;-65
2023/01/08 03:14:33;;;;;;;4.53;4.13;;;9.80;99.90;;;;;;4995568;28;20553;-65
2023/01/08 03:17:13;;;;;;;4.67;4.30;;;9.80;99.90;;;;;;5011387;28;20181;-65
2023/01/08 03:19:55;;;;;;;4.93;3.93;;;9.80;99.90;;;;;;4996484;28;20165;-65
2023/01/08 03:22:22;;;;;;;4.80;3.93;;;9.80;99.90;;;;;;4996896;28;20164;-65
2023/01/08 03:24:51;;;;;;;7.80;4.03;;;9.80;99.90;;;;;;4996597;28;20180;-65
2023/01/08 03:27:25;;;;;;;4.20;3.90;;;9.80;99.90;;;;;;4995274;28;20184;-65
2023/01/08 03:29:53;;;;;;;5.93;4.00;;;9.80;99.90;;;;;;5012209;28;20645;-65
2023/01/08 03:32:21;;;;;;;6.47;4.10;;;9.90;99.90;;;;;;4979818;28;20677;-64
2023/01/08 03:34:50;;;;;;;4.40;3.97;;;9.90;99.90;;;;;;4978969;28;20261;-64
2023/01/08 03:37:21;;;;;;;4.40;3.77;;;9.90;99.90;;;;;;4978362;28;20207;-64
2023/01/08 03:39:56;;;;;;;4.20;3.80;;;9.90;99.90;;;;;;4977397;28;20554;-64
2023/01/08 03:42:23;;;;;;;4.57;3.90;;;9.90;99.90;;;;;;4976825;28;20299;-64
2023/01/08 03:44:50;;;;;;;4.53;4.10;;;9.90;99.90;;;;;;4977231;28;20165;-64
2023/01/08 03:47:18;;;;;;;4.20;3.90;;;9.90;99.90;;;;;;4976503;28;20220;-65
2023/01/08 03:49:45;;;;;;;6.60;4.47;;;9.80;99.90;;;;;;4976572;28;20182;-65
2023/01/08 03:52:28;;;;;;;4.57;4.17;;;9.80;99.90;;;;;;4975466;28;20212;-64
2023/01/08 03:54:55;;;;;;;4.30;3.90;;;9.80;99.90;;;;;;4976294;28;20181;-65
2023/01/08 03:57:20;;;;;;;4.20;3.80;;;9.80;99.90;;;;;;4974736;28;20204;-64
2023/01/08 03:59:46;;;;;;;4.00;3.70;;;9.70;99.90;;;;;;4975928;28;20630;-64
2023/01/08 04:02:13;;;;;;;4.47;3.73;;;9.80;99.90;;;;;;4994730;28;20208;-65
2023/01/08 04:04:39;;;;;;;4.20;3.90;;;9.80;99.90;;;;;;4995593;28;20187;-65
2023/01/08 04:07:05;;;;;;;4.37;3.77;;;9.80;99.90;;;;;;4995431;28;20172;-65
2023/01/08 04:09:30;;;;;;;3.80;3.60;;;9.80;99.90;;;;;;4994023;28;20204;-65
2023/01/08 04:11:56;;;;;;;3.90;3.60;;;9.80;99.90;;;;;;4995123;28;20278;-65
2023/01/08 04:14:22;;;;;;;4.00;3.60;;;9.90;99.90;;;;;;4995413;28;20173;-65
2023/01/08 04:16:48;;;;;;;4.03;3.60;;;9.90;99.90;;;;;;4995081;28;20247;-65
2023/01/08 04:19:13;;;;;;;4.10;3.80;;;9.90;99.90;;;;;;4993658;28;20187;-65
2023/01/08 04:21:39;;;;;;;4.10;3.80;;;9.90;99.90;;;;;;4994936;28;20200;-64
2023/01/08 04:24:06;;;;;;;7.77;3.80;;;9.90;99.90;;;;;;4994927;28;20176;-65
2023/01/08 04:26:32;;;;;;;4.30;3.90;;;9.90;99.90;;;;;;4994962;28;20180;-65
2023/01/08 04:29:00;;;;;;;3.73;3.43;;;9.90;99.90;;;;;;4995650;28;20176;-64
2023/01/08 04:31:26;;;;;;;4.27;3.87;;;9.90;99.90;;;;;;4994795;28;20280;-65
2023/01/08 04:33:52;;;;;;;4.10;3.80;;;9.90;99.90;;;;;;4995276;28;20677;-65
2023/01/08 04:36:17;;;;;;;5.20;3.90;;;9.90;99.90;;;;;;4994684;28;20208;-65
2023/01/08 04:38:43;;;;;;;4.43;3.53;;;9.90;99.90;;;;;;4993444;28;20251;-64
2023/01/08 04:41:09;;;;;;;4.27;3.87;;;9.90;99.90;;;;;;4994897;28;20196;-65
2023/01/08 04:43:35;;;;;;;4.10;3.80;;;9.90;99.90;;;;;;4994805;28;20274;-65
2023/01/08 04:46:02;;;;;;;4.07;3.70;;;9.90;99.90;;;;;;4994860;28;20612;-65
2023/01/08 04:48:29;;;;;;;4.87;3.70;;;9.90;99.90;;;;;;4995110;28;20188;-65
2023/01/08 04:50:57;;;;;;;4.07;3.77;;;9.90;99.90;;;;;;4993149;28;20204;-65
2023/01/08 04:53:23;;;;;;;3.90;3.60;;;9.80;99.90;;;;;;5009804;28;20204;-65
2023/01/08 04:55:49;;;;;;;4.80;3.83;;;9.80;99.90;;;;;;4994859;28;20176;-65
2023/01/08 04:58:14;;;;;;;4.23;3.80;;;9.80;99.90;;;;;;4994800;28;20180;-65
2023/01/08 05:00:40;;;;;;;4.27;3.83;;;9.80;99.90;;;;;;4994375;28;20208;-65
2023/01/08 05:03:06;;;;;;;4.13;3.83;;;9.80;99.90;;;;;;4994722;28;20222;-65
2023/01/08 05:05:34;;;;;;;4.10;3.70;;;9.70;99.90;;;;;;4994488;28;20204;-65
2023/01/08 05:08:00;;;;;;;4.10;3.80;;;9.70;99.90;;;;;;4993207;28;20645;-65
2023/01/08 05:10:26;;;;;;;3.87;3.67;;;9.70;99.90;;;;;;4994265;28;20302;-65
2023/01/08 05:12:51;;;;;;;4.00;3.60;;;9.70;99.90;;;;;;4994363;28;20210;-65
2023/01/08 05:15:17;;;;;;;5.53;3.80;;;9.70;99.90;;;;;;4994297;28;20187;-64
2023/01/08 05:17:43;;;;;;;4.10;3.70;;;9.70;99.90;;;;;;4994181;28;20230;-64
2023/01/08 05:20:09;;;;;;;4.07;3.67;;;9.70;99.90;;;;;;4993911;28;20259;-64
2023/01/08 05:22:35;;;;;;;4.03;3.60;;;9.70;99.90;;;;;;4994205;28;20216;-65
2023/01/08 05:25:00;;;;;;;4.07;3.77;;;9.60;99.90;;;;;;5009056;28;20215;-65
2023/01/08 05:27:27;;;;;;;4.13;3.83;;;9.60;99.90;;;;;;4994454;28;20597;-64
2023/01/08 05:29:53;;;;;;;3.97;3.67;;;9.60;99.90;;;;;;4994334;28;20272;-65
2023/01/08 05:32:19;;;;;;;3.77;3.50;;;9.60;99.90;;;;;;5008922;28;20295;-65
2023/01/08 05:34:45;;;;;;;4.17;3.73;;;9.60;99.90;;;;;;4994373;28;20195;-65
2023/01/08 05:37:11;;;;;;;3.63;3.43;;;9.60;99.90;;;;;;4996899;28;20232;-65
2023/01/08 05:39:37;;;;;;;3.90;3.53;;;9.60;99.90;;;;;;5013072;28;20184;-65
2023/01/08 05:42:03;;;;;;;3.70;3.40;;;9.60;99.90;;;;;;4998200;28;20205;-65
2023/01/08 05:44:29;;;;;;;3.97;3.67;;;9.60;99.90;;;;;;4997718;28;20199;-65
2023/01/08 05:46:56;;;;;;;4.33;3.60;;;9.60;99.90;;;;;;4996528;28;20180;-65
2023/01/08 05:49:22;;;;;;;3.77;3.40;;;9.60;99.90;;;;;;4996444;28;20184;-65
2023/01/08 05:51:49;;;;;;;3.43;3.23;;;9.50;99.90;;;;;;4997738;28;20204;-64
2023/01/08 05:54:15;;;;;;;4.40;3.47;;;9.50;99.90;;;;;;4997674;28;20188;-65
2023/01/08 05:56:42;;;;;;;3.90;3.60;;;9.60;99.90;;;;;;4997648;28;20195;-64
2023/01/08 05:59:12;;;;;;;4.30;3.40;;;9.60;99.90;;;;;;4996377;28;20169;-64
2023/01/08 06:01:38;;;;;;;3.50;3.30;;;9.70;99.90;;;;;;4997298;28;20287;-64
2023/01/08 06:04:04;;;;;;;3.20;3.00;;;9.60;99.90;;;;;;4997369;28;20247;-64
2023/01/08 06:06:30;;;;;;;4.13;3.27;;;9.70;99.90;;;;;;4997368;28;20180;-65
2023/01/08 06:08:56;;;;;;;3.07;2.87;;;9.70;99.90;;;;;;5012543;28;20537;-64
2023/01/08 06:11:21;;;;;;;3.40;3.20;;;9.70;99.90;;;;;;4997196;28;20203;-65
2023/01/08 06:13:47;;;;;;;3.37;3.17;;;9.60;99.90;;;;;;4996022;28;20562;-65
2023/01/08 06:16:13;;;;;;;3.40;3.20;;;9.70;99.90;;;;;;5012443;28;20577;-65
2023/01/08 06:18:38;;;;;;;3.60;3.30;;;9.70;99.90;;;;;;4997262;28;20177;-64
2023/01/08 06:21:05;;;;;;;3.60;3.30;;;9.70;99.90;;;;;;4997228;28;20227;-65
2023/01/08 06:23:31;;;;;;;3.53;3.23;;;9.60;99.90;;;;;;4997621;28;20184;-65
2023/01/08 06:25:58;;;;;;;4.03;3.70;;;9.70;99.90;;;;;;5012537;28;20667;-65
2023/01/08 06:28:24;;;;;;;3.30;3.10;;;9.70;99.90;;;;;;4997212;28;20179;-65
2023/01/08 06:30:50;;;;;;;3.30;3.10;;;9.70;99.90;;;;;;4997121;28;20648;-65
2023/01/08 06:33:16;;;;;;;3.30;3.10;;;9.60;99.90;;;;;;4997066;28;20212;-65
2023/01/08 06:35:42;;;;;;;3.50;3.20;;;9.60;99.90;;;;;;4996197;28;20237;-68
2023/01/08 06:38:08;;;;;;;3.40;3.20;;;9.60;99.90;;;;;;4996204;28;20169;-66
2023/01/08 06:40:34;;;;;;;3.43;3.20;;;9.50;99.90;;;;;;4997234;28;20239;-67
2023/01/08 06:43:04;;;;;;;3.50;3.20;;;9.50;99.90;;;;;;4996949;28;20684;-66
2023/01/08 06:45:31;;;;;;;3.30;3.07;;;9.50;99.90;;;;;;4996747;28;20691;-66
2023/01/08 06:48:02;;;;;;;3.33;3.13;;;9.50;99.90;;;;;;4996258;28;20345;-66
2023/01/08 06:50:28;;;;;;;3.30;3.10;;;9.50;99.90;;;;;;4995868;28;20204;-66
2023/01/08 06:52:54;;;;;;;3.53;3.33;;;9.40;99.90;;;;;;4997076;28;20193;-66
2023/01/08 06:55:22;;;;;;;3.40;3.20;;;9.40;99.90;;;;;;4996825;28;20667;-66
2023/01/08 06:57:51;;;;;;;3.33;3.13;;;9.40;99.90;;;;;;4996762;28;20177;-66
2023/01/08 07:00:17;;;;;;;3.27;3.07;;;9.40;99.90;;;;;;4996860;28;20216;-66
2023/01/08 07:02:43;;;;;;;3.50;3.23;;;9.40;99.90;;;;;;4997218;28;20169;-66
2023/01/08 07:05:09;;;;;;;3.67;3.30;;;9.40;99.90;;;;;;4996643;28;20545;-66
2023/01/08 07:07:35;;;;;;;3.40;3.20;;;9.40;99.90;;;;;;4997265;28;20235;-66
2023/01/08 07:10:01;;;;;;;3.20;3.00;;;9.40;99.90;;;;;;4996480;28;20179;-66
2023/01/08 07:12:27;;;;;;;3.00;2.80;;;9.40;99.90;;;;;;4996507;28;20204;-66
2023/01/08 07:14:52;;;;;;;3.40;3.20;;;9.30;99.90;;;;;;4996929;28;20165;-66
2023/01/08 07:17:18;;;;;;;3.60;3.30;;;9.30;99.90;;;;;;4996627;28;20512;-66
2023/01/08 07:19:44;;;;;;;3.47;3.23;;;9.40;99.90;;;;;;4996417;28;20165;-66
2023/01/08 07:22:09;;;;;;;3.40;3.20;;;9.40;99.90;;;;;;4996123;28;20212;-66
2023/01/08 07:24:35;;;;;;;3.20;3.00;;;9.40;99.90;;;;;;4996803;28;20219;-66
2023/01/08 07:27:01;;;;;;;3.50;3.30;;;9.40;99.90;;;;;;5010869;28;20592;-66
2023/01/08 07:29:27;;;;;;;3.47;3.27;;;9.40;99.90;;;;;;4996569;28;20176;-66
2023/01/08 07:31:53;;;;;;;3.60;3.40;;;9.40;99.90;;;;;;4996059;28;20216;-66
2023/01/08 07:34:18;;;;;;;3.20;3.10;;;9.40;99.90;;;;;;4996553;28;20176;-66
2023/01/08 07:36:44;;;;;;;3.20;3.00;;;9.50;99.90;;;;;;4996544;28;20191;-66
2023/01/08 07:39:10;;;;;;;3.47;3.27;;;9.50;99.90;;;;;;4996061;28;20177;-65
2023/01/08 07:41:36;;;;;;;3.17;3.00;;;9.50;99.90;;;;;;4996133;28;20198;-66
2023/01/08 07:44:02;;;;;;;3.30;3.10;;;9.60;99.90;;;;;;4996115;28;20199;-65
2023/01/08 07:46:27;;;;;;;3.00;2.90;;;9.60;99.90;;;;;;4996097;28;20165;-66
2023/01/08 07:48:54;;;;;;;3.30;3.10;;;9.60;99.90;;;;;;4996109;28;20553;-66
2023/01/08 07:51:20;;;;;;;3.17;3.03;;;9.50;99.90;;;;;;4995599;28;20684;-66
2023/01/08 07:53:45;;;;;;;3.17;3.00;;;9.50;99.90;;;;;;4995918;28;20232;-66
2023/01/08 07:56:11;;;;;;;3.70;3.40;;;9.50;99.90;;;;;;4995638;28;20184;-66
2023/01/08 07:58:37;;;;;;;4.00;3.70;;;9.40;99.90;;;;;;5010788;28;20188;-66
2023/01/08 08:01:05;;;;;;;3.90;3.60;;;9.30;99.90;;;;;;4994439;28;20204;-66
2023/01/08 08:03:31;;;;;;;3.87;3.47;;;9.10;99.90;;;;;;5010726;28;20274;-66
2023/01/08 08:05:59;;;;;;;3.57;3.30;;;8.90;99.90;;;;;;4995468;28;20283;-66
2023/01/08 08:08:24;;;;;;;3.20;3.00;;;8.70;99.90;;;;;;4995248;28;20268;-66
2023/01/08 08:10:50;;;;;;;3.20;3.00;;;8.50;99.90;;;;;;5010708;28;20327;-65
2023/01/08 08:13:16;;;;;;;3.40;3.20;;;8.40;99.90;;;;;;4995351;28;20649;-66
2023/01/08 08:15:42;;;;;;;3.43;3.23;;;8.30;99.90;;;;;;4995650;28;20176;-66
2023/01/08 08:18:08;;;;;;;5.47;4.53;;;8.20;99.90;;;;;;4995351;28;20617;-65
2023/01/08 08:20:34;;;;;;;7.37;3.93;;;8.20;99.90;;;;;;4995535;28;20649;-66
2023/01/08 08:23:09;;;;;;;5.20;3.57;;;8.10;99.90;;;;;;4995231;28;20187;-66
2023/01/08 08:25:36;;;;;;;3.50;3.30;;;8.10;99.90;;;;;;4995248;28;20176;-66
2023/01/08 08:28:02;;;;;;;4.07;3.40;;;8.10;99.90;;;;;;4994883;28;20307;-66
2023/01/08 08:30:30;;;;;;;3.70;3.50;;;8.10;99.90;;;;;;4994797;28;20267;-66
2023/01/08 08:32:59;;;;;;;3.23;3.10;;;8.10;99.90;;;;;;4994870;28;20203;-66
2023/01/08 08:35:25;;;;;;;8.70;3.50;;;8.20;99.90;;;;;;4994586;28;20637;-66
2023/01/08 08:37:50;;;;;;;3.37;3.10;;;8.20;99.90;;;;;;4995259;28;20171;-65
2023/01/08 08:40:16;;;;;;;3.80;3.47;;;8.20;99.90;;;;;;4994601;28;20194;-65
2023/01/08 08:42:42;;;;;;;3.87;3.50;;;8.30;99.90;;;;;;4994521;28;20199;-65
2023/01/08 08:45:08;;;;;;;3.47;3.27;;;8.30;99.90;;;;;;4994986;28;20164;-65
2023/01/08 08:47:34;;;;;;;6.53;3.70;;;8.30;99.90;;;;;;4994919;28;20587;-65
2023/01/08 08:50:01;;;;;;;3.63;3.33;;;8.30;99.90;;;;;;4993173;28;20212;-65
2023/01/08 08:52:28;;;;;;;3.83;3.20;;;8.30;99.90;;;;;;4994404;28;20687;-65
2023/01/08 08:54:54;;;;;;;3.27;3.13;;;8.20;99.90;;;;;;4994805;28;20172;-66
2023/01/08 08:57:22;;;;;;;3.60;3.30;;;8.20;99.90;;;;;;4995088;28;20585;-65
2023/01/08 08:59:48;;;;;;;3.40;3.10;;;8.20;99.90;;;;;;4994866;28;20208;-65
2023/01/08 09:02:14;;;;;;;3.60;3.30;;;8.20;99.90;;;;;;4994453;28;20242;-66
2023/01/08 09:04:39;;;;;;;4.00;3.60;;;8.10;99.90;;;;;;4994824;28;20176;-66
2023/01/08 09:07:05;;;;;;;3.63;3.30;;;8.10;99.90;;;;;;4994598;28;20649;-66
2023/01/08 09:09:31;;;;;;;3.90;3.53;;;8.10;99.90;;;;;;4994754;28;20172;-65
2023/01/08 09:11:56;;;;;;;4.27;3.00;;;8.10;99.90;;;;;;4993957;28;20247;-66
2023/01/08 09:14:22;;;;;;;4.63;3.40;;;8.10;99.90;;;;;;4994857;28;20173;-65
2023/01/08 09:16:48;;;;;;;6.17;3.40;;;8.10;99.90;;;;;;4995095;28;20203;-66
2023/01/08 09:19:14;;;;;;;9.53;3.63;;;8.10;99.90;;;;;;5009849;28;20208;-66
2023/01/08 09:21:39;;;;;;;8.50;4.90;;;8.10;99.90;;;;;;5009692;28;20196;-65
2023/01/08 09:24:06;;;;;;;9.60;5.33;;;8.20;99.90;;;;;;5010454;28;20175;-67
2023/01/08 09:26:32;;;;;;;6.80;4.00;;;8.20;99.90;;;;;;4996141;28;20259;-65
2023/01/08 09:28:58;;;;;;;4.07;3.70;;;8.20;99.90;;;;;;5011781;28;20629;-65
2023/01/08 09:31:24;;;;;;;7.33;3.70;;;8.30;99.90;;;;;;5011073;28;20250;-65
2023/01/08 09:33:50;;;;;;;6.23;4.77;;;8.30;99.90;;;;;;4994795;28;20226;-65
2023/01/08 09:36:17;;;;;;;5.90;3.57;;;8.30;99.90;;;;;;4994826;28;20721;-65
2023/01/08 09:38:43;;;;;;;7.87;3.83;;;8.30;99.90;;;;;;4994948;28;20179;-65
2023/01/08 09:41:19;;;;;;;7.30;3.70;;;8.30;99.90;;;;;;4993423;28;20576;-65
2023/01/08 09:43:49;;;;;;;10.43;5.00;;;8.30;99.90;;;;;;4994648;28;20191;-65
2023/01/08 09:46:18;;;;;;;8.83;5.03;;;8.40;99.90;;;;;;4995746;28;20173;-68
2023/01/08 09:48:44;;;;;;;16.23;6.07;;;8.40;99.90;;;;;;4995131;28;20173;-67
2023/01/08 09:51:16;;;;;;;6.77;4.93;;;8.50;99.90;;;;;;4994814;28;20764;-68
2023/01/08 09:53:43;;;;;;;9.77;4.50;;;8.50;99.90;;;;;;4993427;28;20582;-68
2023/01/08 09:56:16;;;;;;;7.67;4.47;;;8.60;99.90;;;;;;4994274;28;20164;-67
2023/01/08 09:58:51;;;;;;;10.40;5.60;;;8.60;99.90;;;;;;4994572;28;20165;-67
2023/01/08 10:01:28;;;;;;;10.17;4.67;;;8.60;99.90;;;;;;4994212;28;20339;-67
2023/01/08 10:04:04;;;;;;;9.00;5.60;;;8.70;99.90;;;;;;4994539;28;20582;-68
2023/01/08 10:06:30;;;;;;;6.70;4.23;;;8.70;99.90;;;;;;4994000;28;20230;-67
2023/01/08 10:08:56;;;;;;;11.13;5.57;;;8.90;99.90;;;;;;5009275;28;20181;-67
2023/01/08 10:11:25;;;;;;;8.03;4.20;;;9.00;99.90;;;;;;4992570;28;20200;-67
2023/01/08 10:13:56;;;;;;;12.47;5.60;;;9.10;99.90;;;;;;4994142;28;20200;-67
2023/01/08 10:16:32;;;;;;;11.23;5.90;;;9.20;99.90;;;;;;4994242;28;20177;-67
2023/01/08 10:18:58;;;;;;;14.50;6.60;;;9.30;99.90;;;;;;4994645;28;20172;-67
2023/01/08 10:21:31;;;;;;;5.70;3.63;;;9.40;99.90;;;;;;4994168;28;20653;-67
2023/01/08 10:23:58;;;;;;;7.30;3.83;;;9.50;99.90;;;;;;4996981;28;20214;-67
2023/01/08 10:26:29;;;;;;;8.60;4.50;;;9.50;99.90;;;;;;4998055;28;20182;-67
2023/01/08 10:29:14;;;;;;;6.07;3.67;;;9.50;99.90;;;;;;4997792;28;20172;-67
2023/01/08 10:31:57;;;;;;;5.17;3.80;;;9.30;99.90;;;;;;4997432;28;20211;-67
2023/01/08 10:34:50;;;;;;;5.50;3.63;;;9.30;99.90;;;;;;4996150;28;20184;-67
2023/01/08 10:37:28;;;;;;;4.07;3.50;;;9.30;99.90;;;;;;4996904;28;20185;-67
2023/01/08 10:40:43;;;;;;;6.37;3.83;;;9.40;99.90;;;;;;4996009;28;20258;-67
2023/01/08 10:43:13;;;;;;;4.83;3.00;;;9.40;99.90;;;;;;4983356;28;20208;-67
2023/01/08 10:45:40;;;;;;;4.10;3.70;;;9.40;99.90;;;;;;4996957;28;20644;-67
2023/01/08 10:48:14;;;;;;;4.33;3.60;;;9.50;99.90;;;;;;4996902;28;20177;-67
2023/01/08 10:50:40;;;;;;;7.60;3.50;;;9.70;99.90;;;;;;4996950;28;20199;-67
2023/01/08 10:53:25;;;;;;;8.07;3.40;;;9.90;99.90;;;;;;4995443;28;20204;-68
2023/01/08 10:55:58;;;;;;;4.03;3.60;;;10.00;99.90;;;;;;4996902;28;20157;-67
2023/01/08 10:58:27;;;;;;;4.97;3.20;;;10.10;99.90;;;;;;4996781;28;20173;-67
2023/01/08 11:00:53;;;;;;;3.00;2.80;;;10.30;99.90;;;;;;5011517;28;20200;-67
2023/01/08 11:03:31;;;;;;;4.32;3.20;;;10.50;99.90;;;;;;4995371;28;20183;-67
2023/01/08 11:05:58;;;;;;;4.07;3.20;;;10.70;99.90;;;;;;4996603;28;20234;-67
2023/01/08 11:08:24;;;;;;;3.33;3.03;;;10.90;99.90;;;;;;4995232;28;20215;-67
2023/01/08 11:11:09;;;;;;;7.10;3.00;;;10.80;99.90;;;;;;4996445;28;20692;-67
2023/01/08 11:13:35;;;;;;;3.03;2.83;;;10.80;99.90;;;;;;4996317;28;20668;-67
2023/01/08 11:16:10;;;;;;;5.30;3.10;;;10.90;99.90;;;;;;4996819;28;20179;-68
2023/01/08 11:18:45;;;;;;;3.97;3.15;;;11.10;99.90;;;;;;4996469;28;20180;-67
2023/01/08 11:21:24;;;;;;;5.47;3.10;;;11.10;99.90;;;;;;4996373;28;20199;-68
2023/01/08 11:24:20;;;;;;;3.55;3.05;;;11.20;99.90;;;;;;4996562;28;20227;-67
2023/01/08 11:27:12;;;;;;;3.97;3.27;;;11.20;99.90;;;;;;4996524;28;20169;-67
2023/01/08 11:29:44;;;;;;;4.20;3.13;;;11.30;99.90;;;;;;4973554;28;20287;-67
2023/01/08 11:32:29;;;;;;;3.88;3.03;;;11.30;99.90;;;;;;5011131;28;20591;-68
2023/01/08 11:35:10;;;;;;;4.50;3.20;;;11.20;99.90;;;;;;4995708;28;20163;-68
2023/01/08 11:37:49;;;;;;;5.80;3.22;;;11.20;99.90;;;;;;4996337;28;20187;-65
2023/01/08 11:40:30;;;;;;;4.82;3.00;;;11.20;99.90;;;;;;4996410;28;20161;-66
2023/01/08 11:43:15;;;;;;;3.13;2.92;;;11.30;99.90;;;;;;4996819;28;20283;-68
2023/01/08 11:46:17;;;;;;;3.65;3.35;;;11.50;99.90;;;;;;5011219;28;20184;-68
2023/01/08 11:48:55;;;;;;;3.20;3.00;;;11.60;99.90;;;;;;5010590;28;20191;-68
2023/01/08 11:52:06;;;;;;;4.03;2.92;;;11.60;99.90;;;;;;4995231;28;20208;-67
2023/01/08 11:54:38;;;;;;;6.65;5.10;;;11.70;99.90;;;;;;4973165;28;20200;-68
2023/01/08 11:57:31;;;;;;;4.32;3.00;;;11.80;99.90;;;;;;5011032;28;20219;-68
2023/01/08 11:59:56;;;;;;;4.63;4.00;;;11.50;99.90;;;;;;5011753;28;20612;-71
2023/01/08 12:02:34;;;;;;;4.03;3.28;;;11.30;99.90;;;;;;4996449;28;20212;-72
2023/01/08 12:05:25;;;;;;;3.40;3.17;;;11.10;99.90;;;;;;4996447;28;20161;-71
2023/01/08 12:07:59;;;;;;;4.05;3.70;;;11.10;99.90;;;;;;4995096;28;20176;-72
2023/01/08 12:10:29;;;;;;;4.10;3.65;;;11.00;99.90;;;;;;4996327;28;20555;-72
2023/01/08 12:13:34;;;;;;;4.07;3.73;;;10.80;99.90;;;;;;4995566;28;20599;-68
2023/01/08 12:16:06;;;;;;;3.43;3.23;;;10.60;99.90;;;;;;4991753;28;20184;-68
2023/01/08 12:19:05;;;;;;;3.88;3.30;;;10.60;99.90;;;;;;5010456;28;20521;-68
2023/01/08 12:21:50;;;;;;;5.20;4.70;;;10.70;99.90;;;;;;4995227;28;20189;-68
2023/01/08 12:24:52;;;;;;;3.10;2.90;;;10.80;99.90;;;;;;4995292;28;20161;-68
2023/01/08 12:27:48;;;;;;;4.30;3.23;;;10.80;99.90;;;;;;4987216;28;20203;-68
2023/01/08 12:30:24;;;;;;;4.57;3.23;;;10.80;99.90;;;;;;5010943;28;20196;-67
2023/01/08 12:33:03;;;;;;;3.83;3.50;;;10.80;99.90;;;;;;4994881;28;20211;-67
2023/01/08 12:35:43;;;;;;;3.10;3.00;;;10.60;99.90;;;;;;4994838;28;20164;-67
2023/01/08 12:38:30;;;;;;;3.57;3.07;;;10.60;99.90;;;;;;4993983;28;20168;-68
2023/01/08 12:40:59;;;;;;;4.10;3.00;;;10.60;99.90;;;;;;4995384;28;20192;-68
2023/01/08 12:43:54;;;;;;;4.07;3.67;;;10.70;99.90;;;;;;4994853;28;20188;-68
2023/01/08 12:46:21;;;;;;;3.13;2.92;;;11.10;99.90;;;;;;4991095;28;20188;-68
2023/01/08 12:48:50;;;;;;;3.87;3.57;;;11.30;99.90;;;;;;4994842;28;20184;-68
2023/01/08 12:51:18;;;;;;;3.30;3.10;;;11.40;99.90;;;;;;4993339;28;20281;-67
2023/01/08 12:54:02;;;;;;;3.20;3.00;;;11.50;99.90;;;;;;4994618;28;20203;-67
2023/01/08 12:56:52;;;;;;;3.20;3.00;;;11.40;99.90;;;;;;4994477;28;20164;-67
2023/01/08 12:59:18;;;;;;;3.17;3.00;;;11.10;99.90;;;;;;4992566;28;20699;-67
2023/01/08 13:01:56;;;;;;;3.27;2.77;;;10.80;99.90;;;;;;5009819;28;20232;-67
2023/01/08 13:04:22;;;;;;;3.13;2.83;;;10.60;99.90;;;;;;4993581;28;20169;-67
2023/01/08 13:06:56;;;;;;;3.23;3.00;;;10.40;99.90;;;;;;4994736;28;20173;-68
2023/01/08 13:09:24;;;;;;;3.37;3.17;;;10.30;99.90;;;;;;4993499;28;20218;-68